Mathilde Maersk — OUJS2 — position and weather

sailwx.info

Track history (hours):
 
Tides and Currents Weather Stations Pressure Air Temp Water Temp Dewpoint Dewpoint Depression Visibility Wind Speed Wind Dir Waves Ship Positions

Mathilde Maersk

Last reported at 2015-Mar-26 01:33 UTC. Time now 2015-Mar-27 05:21 UTC.
Position N 30°37' E 122°04'.

Length 367 m; draft 12.2 m.

Type: Ship (hazmat cat B). MMSI: 220597990.

Date/timePositionNaut miles runAvg speedWind from/ knotsBaromVisibWave heightAir tempDewpointWater temp
2015-Mar-26 01:33N 30°37' E 122°04'1211.8
2015-Mar-26 00:32N 30°33' E 122°18'1110.3
2015-Mar-25 23:29N 30°28' E 122°29'0 0.0
2015-Mar-25 11:23N 30°28' E 122°29'0 0.0
2015-Mar-25 09:32N 30°28' E 122°29'0 0.0
2015-Mar-25 00:33N 30°28' E 122°29'0 0.1
2015-Mar-24 23:33N 30°28' E 122°29'7 6.8
2015-Mar-24 22:33N 30°30' E 122°36'7 5.1
2015-Mar-24 21:11N 30°28' E 122°44'42 4.2
2015-Mar-24 11:15N 29°47' E 122°35'4 5.4
2015-Mar-24 10:31N 29°45' E 122°31'6 6.5
2015-Mar-24 09:33N 29°44' E 122°24'9 9.0
2015-Mar-24 08:33N 29°48' E 122°15'1312.6
2015-Mar-24 07:34N 29°55' E 122°03'1110.9
2015-Mar-24 06:33N 29°57' E 121°50'1 0.6
2015-Mar-24 05:27N 29°57' E 121°50'0 0.0
2015-Mar-24 04:33N 29°57' E 121°50'0 0.0
2015-Mar-24 03:21N 29°57' E 121°50'0 0.0
2015-Mar-24 02:33N 29°57' E 121°50'0 0.0
2015-Mar-24 01:27N 29°57' E 121°50'0 0.0
2015-Mar-24 00:33N 29°57' E 121°50'0 0.0
2015-Mar-23 23:27N 29°57' E 121°50'0 0.0
2015-Mar-23 22:27N 29°57' E 121°50'0 0.0
2015-Mar-23 21:33N 29°57' E 121°50'0 0.0
2015-Mar-23 20:33N 29°57' E 121°50'0 0.1
2015-Mar-23 19:33N 29°57' E 121°50'3 3.0
2015-Mar-23 18:33N 29°57' E 121°54'1 0.7
2015-Mar-23 17:33N 29°57' E 121°55'0 0.2
2015-Mar-23 16:30N 29°57' E 121°54'0 0.1
2015-Mar-23 15:24N 29°57' E 121°54'0 0.0
2015-Mar-23 14:30N 29°57' E 121°54'0 0.1
2015-Mar-23 13:33N 29°57' E 121°54'0 0.3
2015-Mar-23 12:33N 29°57' E 121°55'0 0.0
2015-Mar-23 11:30N 29°57' E 121°55'0 0.0
2015-Mar-23 10:24N 29°57' E 121°55'0 0.0
2015-Mar-23 09:33N 29°57' E 121°55'0 0.0
2015-Mar-23 08:30N 29°57' E 121°55'1 0.8
2015-Mar-23 07:33N 29°57' E 121°56'1211.7
2015-Mar-23 06:33N 29°56' E 122°09'1312.5
2015-Mar-23 05:33N 29°46' E 122°18'1515.1
2015-Mar-23 04:33N 29°34' E 122°29'2121.1
2015-Mar-23 03:33N 29°13' E 122°31'2220.9
2015-Mar-23 02:29N 28°52' E 122°27'25317.7
2015-Mar-22 12:16N 25°10' E 120°10'6316.5
2015-Mar-22 08:26N 24°28' E 119°19'1415.7
2015-Mar-22 07:31N 24°19' E 119°06'2015.5
2015-Mar-22 06:14N 24°08' E 118°48'1015.6
2015-Mar-22 05:33N 24°02' E 118°39'1616.1
2015-Mar-22 04:33N 23°52' E 118°25'1717.2
2015-Mar-22 03:33N 23°41' E 118°11'7517.6
2015-Mar-21 23:16N 22°56' E 117°05'1216.2
2015-Mar-21 22:33N 22°48' E 116°55'139 3.8
2015-Mar-20 10:13N 22°16' E 114°29'  
Track history (hours):
 
Tides and Currents Weather Stations Pressure Air Temp Water Temp Dewpoint Dewpoint Depression Visibility Wind Speed Wind Dir Waves Ship Positions

Mathilde Maersk

Last reported at 2015-Mar-26 01:33 UTC. Time now 2015-Mar-27 05:21 UTC.
Position N 30°37' E 122°04'.

Length 367 m; draft 12.2 m.

Type: Ship (hazmat cat B). MMSI: 220597990.

Date/timePositionNaut miles runAvg speedWind from/ knotsBaromVisibWave heightAir tempDewpointWater temp
2015-Mar-26 01:33N 30°37' E 122°04'1211.8
2015-Mar-26 00:32N 30°33' E 122°18'1110.3
2015-Mar-25 23:29N 30°28' E 122°29'0 0.0
2015-Mar-25 11:23N 30°28' E 122°29'0 0.0
2015-Mar-25 09:32N 30°28' E 122°29'0 0.0
2015-Mar-25 00:33N 30°28' E 122°29'0 0.1
2015-Mar-24 23:33N 30°28' E 122°29'7 6.8
2015-Mar-24 22:33N 30°30' E 122°36'7 5.1
2015-Mar-24 21:11N 30°28' E 122°44'42 4.2
2015-Mar-24 11:15N 29°47' E 122°35'4 5.4
2015-Mar-24 10:31N 29°45' E 122°31'6 6.5
2015-Mar-24 09:33N 29°44' E 122°24'9 9.0
2015-Mar-24 08:33N 29°48' E 122°15'1312.6
2015-Mar-24 07:34N 29°55' E 122°03'1110.9
2015-Mar-24 06:33N 29°57' E 121°50'1 0.6
2015-Mar-24 05:27N 29°57' E 121°50'0 0.0
2015-Mar-24 04:33N 29°57' E 121°50'0 0.0
2015-Mar-24 03:21N 29°57' E 121°50'0 0.0
2015-Mar-24 02:33N 29°57' E 121°50'0 0.0
2015-Mar-24 01:27N 29°57' E 121°50'0 0.0
2015-Mar-24 00:33N 29°57' E 121°50'0 0.0
2015-Mar-23 23:27N 29°57' E 121°50'0 0.0
2015-Mar-23 22:27N 29°57' E 121°50'0 0.0
2015-Mar-23 21:33N 29°57' E 121°50'0 0.0
2015-Mar-23 20:33N 29°57' E 121°50'0 0.1
2015-Mar-23 19:33N 29°57' E 121°50'3 3.0
2015-Mar-23 18:33N 29°57' E 121°54'1 0.7
2015-Mar-23 17:33N 29°57' E 121°55'0 0.2
2015-Mar-23 16:30N 29°57' E 121°54'0 0.1
2015-Mar-23 15:24N 29°57' E 121°54'0 0.0
2015-Mar-23 14:30N 29°57' E 121°54'0 0.1
2015-Mar-23 13:33N 29°57' E 121°54'0 0.3
2015-Mar-23 12:33N 29°57' E 121°55'0 0.0
2015-Mar-23 11:30N 29°57' E 121°55'0 0.0
2015-Mar-23 10:24N 29°57' E 121°55'0 0.0
2015-Mar-23 09:33N 29°57' E 121°55'0 0.0
2015-Mar-23 08:30N 29°57' E 121°55'1 0.8
2015-Mar-23 07:33N 29°57' E 121°56'1211.7
2015-Mar-23 06:33N 29°56' E 122°09'1312.5
2015-Mar-23 05:33N 29°46' E 122°18'1515.1
2015-Mar-23 04:33N 29°34' E 122°29'2121.1
2015-Mar-23 03:33N 29°13' E 122°31'2220.9
2015-Mar-23 02:29N 28°52' E 122°27'25317.7
2015-Mar-22 12:16N 25°10' E 120°10'6316.5
2015-Mar-22 08:26N 24°28' E 119°19'1415.7
2015-Mar-22 07:31N 24°19' E 119°06'2015.5
2015-Mar-22 06:14N 24°08' E 118°48'1015.6
2015-Mar-22 05:33N 24°02' E 118°39'1616.1
2015-Mar-22 04:33N 23°52' E 118°25'1717.2
2015-Mar-22 03:33N 23°41' E 118°11'7517.6
2015-Mar-21 23:16N 22°56' E 117°05'1216.2
2015-Mar-21 22:33N 22°48' E 116°55'139 3.8
2015-Mar-20 10:13N 22°16' E 114°29'  

Dump ship's entire track history